createdAt,value
2023-02-17T00:00:05.824Z,99277.34
2023-02-17T00:00:39.371Z,99275.59
2023-02-17T00:00:52.217Z,99273.84
2023-02-17T00:01:15.755Z,99278.22
2023-02-17T00:01:30.811Z,99287.81
2023-02-17T00:01:43.658Z,99283.44
2023-02-17T00:01:56.485Z,99281.69
2023-02-17T00:02:09.327Z,99277.34
2023-02-17T00:02:22.191Z,99280.81
2023-02-17T00:02:35.398Z,99277.34
2023-02-17T00:02:48.344Z,99280.81
2023-02-17T00:03:01.195Z,99277.34
2023-02-17T00:03:14.102Z,99279.09
2023-02-17T00:03:27.074Z,99277.34
2023-02-17T00:03:40.250Z,99279.09
2023-02-17T00:03:53.341Z,99278.25
2023-02-17T00:04:06.295Z,99274.75
2023-02-17T00:04:19.124Z,99278.22
2023-02-17T00:04:32.530Z,99272.97
2023-02-17T00:04:45.363Z,99278.22
2023-02-17T00:04:58.205Z,99279.09
2023-02-17T00:05:11.039Z,99277.34
2023-02-17T00:05:24.273Z,99271.25
2023-02-17T00:05:39.362Z,99277.34
2023-02-17T00:05:52.283Z,99274.72
2023-02-17T00:06:08.504Z,99281.69
2023-02-17T00:06:23.767Z,99276.50
2023-02-17T00:06:36.675Z,99275.63
2023-02-17T00:06:49.512Z,99275.63
2023-02-17T00:07:02.404Z,99273.88
2023-02-17T00:07:15.325Z,99275.63
2023-02-17T00:07:31.621Z,99272.97
2023-02-17T00:07:44.471Z,99279.97
2023-02-17T00:07:57.330Z,99271.25
2023-02-17T00:08:10.162Z,99277.37
2023-02-17T00:08:23.044Z,99279.09
2023-02-17T00:08:35.986Z,99276.47
2023-02-17T00:08:48.934Z,99270.37
2023-02-17T00:09:02.021Z,99276.44
2023-02-17T00:09:15.136Z,99275.56
2023-02-17T00:09:46.268Z,99273.81
2023-02-17T00:09:59.549Z,99274.72
2023-02-17T00:10:12.385Z,99272.97
2023-02-17T00:10:25.215Z,99275.59
2023-02-17T00:10:38.070Z,99275.59
2023-02-17T00:10:58.226Z,99272.13
2023-02-17T00:11:11.145Z,99272.16
2023-02-17T00:11:42.508Z,99273.84
2023-02-17T00:11:55.350Z,99272.97
2023-02-17T00:12:08.205Z,99278.22
2023-02-17T00:12:21.028Z,99278.19
2023-02-17T00:12:34.026Z,99275.59
2023-02-17T00:12:46.951Z,99277.34
2023-02-17T00:12:59.796Z,99276.47
2023-02-17T00:13:12.583Z,99272.97
2023-02-17T00:13:25.440Z,99279.09
2023-02-17T00:13:57.052Z,99274.72
2023-02-17T00:14:12.420Z,99277.34
2023-02-17T00:14:25.825Z,99278.22
2023-02-17T00:14:41.610Z,99267.72
2023-02-17T00:14:54.452Z,99270.34
2023-02-17T00:15:07.644Z,99275.59
2023-02-17T00:15:20.616Z,99273.84
2023-02-17T00:15:33.436Z,99272.97
2023-02-17T00:15:46.291Z,99273.84
2023-02-17T00:15:59.604Z,99272.97
2023-02-17T00:16:20.551Z,99273.84
2023-02-17T00:16:33.541Z,99274.72
2023-02-17T00:16:46.401Z,99272.97
2023-02-17T00:16:59.246Z,99270.37
2023-02-17T00:17:12.113Z,99270.37
2023-02-17T00:17:24.971Z,99269.50
2023-02-17T00:17:37.858Z,99266.00
2023-02-17T00:17:50.725Z,99268.63
2023-02-17T00:18:03.687Z,99269.53
2023-02-17T00:18:16.584Z,99271.25
2023-02-17T00:18:29.447Z,99274.72
2023-02-17T00:18:42.355Z,99269.50
2023-02-17T00:18:56.722Z,99266.84
2023-02-17T00:19:26.037Z,99268.59
2023-02-17T00:19:57.276Z,99271.22
2023-02-17T00:20:10.555Z,99265.94
2023-02-17T00:20:23.428Z,99267.69
2023-02-17T00:20:36.279Z,99270.28
2023-02-17T00:20:49.157Z,99269.41
2023-02-17T00:21:10.508Z,99274.66
2023-02-17T00:21:24.459Z,99265.06
2023-02-17T00:21:37.290Z,99263.31
2023-02-17T00:21:58.116Z,99267.69
2023-02-17T00:22:10.943Z,99265.06
2023-02-17T00:22:23.929Z,99265.97
2023-02-17T00:22:36.810Z,99271.22
2023-02-17T00:22:49.651Z,99259.00
2023-02-17T00:23:02.504Z,99258.12
2023-02-17T00:23:33.742Z,99263.41
2023-02-17T00:23:47.090Z,99260.78
2023-02-17T00:24:00.226Z,99260.78
2023-02-17T00:24:13.070Z,99266.88
2023-02-17T00:24:26.853Z,99267.75
2023-02-17T00:24:40.139Z,99258.16
2023-02-17T00:24:52.997Z,99259.91
2023-02-17T00:25:06.416Z,99258.16
2023-02-17T00:25:19.252Z,99256.41
2023-02-17T00:25:32.113Z,99258.16
2023-02-17T00:25:45.029Z,99262.53
2023-02-17T00:25:57.889Z,99262.53
2023-02-17T00:26:10.901Z,99257.28
2023-02-17T00:26:23.835Z,99257.28
2023-02-17T00:26:36.710Z,99253.81
2023-02-17T00:26:49.612Z,99248.56
2023-02-17T00:27:02.524Z,99255.56
2023-02-17T00:27:15.407Z,99250.31
2023-02-17T00:27:28.260Z,99251.19
2023-02-17T00:27:41.093Z,99258.19
2023-02-17T00:27:54.014Z,99255.59
2023-02-17T00:28:07.019Z,99256.44
2023-02-17T00:28:19.903Z,99258.19
2023-02-17T00:28:32.747Z,99258.19
2023-02-17T00:28:45.615Z,99260.81
2023-02-17T00:28:58.542Z,99260.81
2023-02-17T00:29:11.414Z,99252.09
2023-02-17T00:29:24.266Z,99254.69
2023-02-17T00:29:37.119Z,99249.44
2023-02-17T00:29:49.956Z,99255.56
2023-02-17T00:30:02.872Z,99252.06
2023-02-17T00:30:17.245Z,99255.56
2023-02-17T00:30:30.187Z,99255.56
2023-02-17T00:30:43.019Z,99259.94
2023-02-17T00:30:55.951Z,99253.81
2023-02-17T00:31:09.922Z,99256.41
2023-02-17T00:31:23.430Z,99254.69
2023-02-17T00:31:36.504Z,99264.25
2023-02-17T00:31:49.397Z,99270.37
2023-02-17T00:32:02.514Z,99259.91
2023-02-17T00:32:15.436Z,99260.78
2023-02-17T00:32:28.307Z,99260.78
2023-02-17T00:32:41.148Z,99266.88
2023-02-17T00:32:53.974Z,99257.28
2023-02-17T00:33:06.817Z,99258.16
2023-02-17T00:33:19.624Z,99264.28
2023-02-17T00:33:32.485Z,99265.12
2023-02-17T00:33:45.524Z,99261.66
2023-02-17T00:33:58.391Z,99266.88
2023-02-17T00:34:11.299Z,99264.25
2023-02-17T00:34:24.224Z,99261.66
2023-02-17T00:34:37.343Z,99264.31
2023-02-17T00:34:52.536Z,99265.16
2023-02-17T00:35:05.783Z,99258.19
2023-02-17T00:35:18.641Z,99266.91
2023-02-17T00:35:31.476Z,99267.78
2023-02-17T00:35:44.300Z,99261.69
2023-02-17T00:35:57.154Z,99263.44
2023-02-17T00:36:17.933Z,99265.12
2023-02-17T00:36:30.812Z,99264.28
2023-02-17T00:36:43.641Z,99266.00
2023-02-17T00:36:56.529Z,99265.97
2023-02-17T00:37:09.385Z,99267.72
2023-02-17T00:37:22.250Z,99265.97
2023-02-17T00:37:35.767Z,99262.50
2023-02-17T00:37:48.639Z,99265.97
2023-02-17T00:38:01.525Z,99270.34
2023-02-17T00:38:14.398Z,99268.63
2023-02-17T00:38:28.912Z,99265.97
2023-02-17T00:38:41.795Z,99265.97
2023-02-17T00:38:56.080Z,99267.75
2023-02-17T00:39:08.894Z,99266.88
2023-02-17T00:39:21.897Z,99268.59
2023-02-17T00:39:34.781Z,99270.34
2023-02-17T00:39:47.732Z,99266.84
2023-02-17T00:40:00.558Z,99272.06
2023-02-17T00:40:15.895Z,99267.72
2023-02-17T00:40:28.783Z,99271.22
2023-02-17T00:40:42.674Z,99264.28
2023-02-17T00:40:55.508Z,99270.37
2023-02-17T00:41:08.342Z,99272.97
2023-02-17T00:41:21.408Z,99270.37
2023-02-17T00:41:34.282Z,99274.69
2023-02-17T00:41:47.133Z,99267.72
2023-02-17T00:42:00.007Z,99271.22
2023-02-17T00:42:12.837Z,99266.00
2023-02-17T00:42:25.700Z,99270.37
2023-02-17T00:42:38.550Z,99265.12
2023-02-17T00:42:51.446Z,99268.59
2023-02-17T00:43:04.421Z,99268.63
2023-02-17T00:43:17.245Z,99266.00
2023-02-17T00:43:30.139Z,99271.25
2023-02-17T00:43:42.965Z,99272.13
2023-02-17T00:43:55.859Z,99265.97
2023-02-17T00:44:15.055Z,99267.75
2023-02-17T00:44:28.030Z,99268.59
2023-02-17T00:44:40.985Z,99263.38
2023-02-17T00:44:53.826Z,99267.72
2023-02-17T00:45:06.967Z,99271.22
2023-02-17T00:45:19.804Z,99270.34
2023-02-17T00:45:51.248Z,99270.34
2023-02-17T00:46:04.852Z,99273.81
2023-02-17T00:46:18.061Z,99264.28
2023-02-17T00:46:30.987Z,99273.84
2023-02-17T00:46:44.636Z,99273.84
2023-02-17T00:46:57.532Z,99272.13
2023-02-17T00:47:10.379Z,99267.72
2023-02-17T00:47:23.226Z,99267.72
2023-02-17T00:47:36.071Z,99266.88
2023-02-17T00:47:49.051Z,99267.75
2023-02-17T00:48:01.911Z,99265.12
2023-02-17T00:48:14.776Z,99268.63
2023-02-17T00:48:27.674Z,99272.13
2023-02-17T00:48:40.939Z,99266.00
2023-02-17T00:48:53.987Z,99270.37
2023-02-17T00:49:06.819Z,99268.63
2023-02-17T00:49:21.483Z,99269.50
2023-02-17T00:49:34.356Z,99266.00
2023-02-17T00:49:47.211Z,99273.84
2023-02-17T00:50:00.054Z,99267.75
2023-02-17T00:50:12.901Z,99271.25
2023-02-17T00:50:25.751Z,99275.59
2023-02-17T00:50:38.578Z,99271.22
2023-02-17T00:50:51.477Z,99267.72
2023-02-17T00:51:04.504Z,99268.59
2023-02-17T00:51:17.646Z,99269.50
2023-02-17T00:51:30.524Z,99265.97
2023-02-17T00:51:43.950Z,99264.28
2023-02-17T00:51:59.824Z,99262.50
2023-02-17T00:52:12.664Z,99272.13
2023-02-17T00:52:25.513Z,99264.25
2023-02-17T00:52:38.369Z,99265.12
2023-02-17T00:52:51.291Z,99269.47
2023-02-17T00:53:04.142Z,99278.19
2023-02-17T00:53:17.009Z,99265.09
2023-02-17T00:53:29.851Z,99269.47
2023-02-17T00:53:42.752Z,99273.81
2023-02-17T00:53:55.615Z,99269.47
2023-02-17T00:54:08.474Z,99276.44
2023-02-17T00:54:21.343Z,99267.72
2023-02-17T00:54:34.448Z,99262.50
2023-02-17T00:54:47.293Z,99269.47
2023-02-17T00:55:00.132Z,99267.75
2023-02-17T00:55:12.996Z,99260.78
2023-02-17T00:55:26.722Z,99267.75
2023-02-17T00:55:39.608Z,99259.91
2023-02-17T00:55:52.469Z,99262.50
2023-02-17T00:56:05.838Z,99264.22
2023-02-17T00:56:18.870Z,99272.06
2023-02-17T00:56:31.697Z,99265.06
2023-02-17T00:56:44.683Z,99265.94
2023-02-17T00:56:57.515Z,99264.19
2023-02-17T00:57:10.949Z,99267.69
2023-02-17T00:57:24.848Z,99262.50
2023-02-17T00:57:37.725Z,99257.25
2023-02-17T00:57:50.555Z,99262.50
2023-02-17T00:58:03.504Z,99253.81
2023-02-17T00:58:16.420Z,99261.66
2023-02-17T00:58:29.298Z,99259.91
2023-02-17T00:58:42.218Z,99259.91
2023-02-17T00:58:55.052Z,99262.53
2023-02-17T00:59:08.420Z,99254.69
2023-02-17T00:59:21.284Z,99263.38
2023-02-17T00:59:34.152Z,99262.47
2023-02-17T00:59:46.998Z,99258.12
2023-02-17T00:59:59.899Z,99252.03
2023-02-17T01:00:13.263Z,99259.88
2023-02-17T01:00:26.167Z,99257.25
2023-02-17T01:00:38.974Z,99254.69
2023-02-17T01:00:51.841Z,99254.69
2023-02-17T01:01:04.949Z,99254.69
2023-02-17T01:01:17.834Z,99255.56
2023-02-17T01:01:32.410Z,99252.06
2023-02-17T01:01:45.404Z,99249.44
2023-02-17T01:01:58.376Z,99259.91
2023-02-17T01:02:11.227Z,99251.16
2023-02-17T01:02:24.084Z,99258.12
2023-02-17T01:02:36.916Z,99255.53
2023-02-17T01:02:49.770Z,99252.03
2023-02-17T01:03:02.586Z,99252.91
2023-02-17T01:03:15.478Z,99255.53
2023-02-17T01:03:28.384Z,99258.12
2023-02-17T01:03:42.282Z,99256.38
2023-02-17T01:03:55.281Z,99252.06
2023-02-17T01:04:08.123Z,99259.03
2023-02-17T01:04:21.012Z,99249.44
2023-02-17T01:04:33.889Z,99254.69
2023-02-17T01:04:46.789Z,99246.84
2023-02-17T01:04:59.650Z,99249.44
2023-02-17T01:05:12.533Z,99256.44
2023-02-17T01:05:25.369Z,99251.19
2023-02-17T01:05:42.467Z,99252.94
2023-02-17T01:05:55.547Z,99255.56
2023-02-17T01:06:09.975Z,99251.16
2023-02-17T01:06:31.192Z,99261.63
2023-02-17T01:06:44.036Z,99252.91
2023-02-17T01:06:56.876Z,99255.53
2023-02-17T01:07:09.729Z,99258.12
2023-02-17T01:07:22.620Z,99252.03
2023-02-17T01:07:37.281Z,99252.91
2023-02-17T01:07:50.130Z,99248.53
2023-02-17T01:08:02.977Z,99254.66
2023-02-17T01:08:16.430Z,99254.66
2023-02-17T01:08:29.292Z,99251.19
2023-02-17T01:08:42.128Z,99252.06
2023-02-17T01:08:55.048Z,99248.59
2023-02-17T01:09:09.108Z,99244.22
2023-02-17T01:09:21.969Z,99247.72
2023-02-17T01:09:34.804Z,99248.59
2023-02-17T01:09:47.643Z,99247.69
2023-02-17T01:10:00.470Z,99251.19
2023-02-17T01:10:13.425Z,99260.78
2023-02-17T01:10:26.221Z,99255.56
2023-02-17T01:10:39.865Z,99260.78
2023-02-17T01:10:52.915Z,99252.94
2023-02-17T01:11:05.968Z,99250.31
2023-02-17T01:11:23.610Z,99251.19
2023-02-17T01:11:36.534Z,99252.06
2023-02-17T01:11:49.400Z,99251.22
2023-02-17T01:12:02.228Z,99248.59
2023-02-17T01:12:15.113Z,99246.84
2023-02-17T01:12:27.951Z,99245.09
2023-02-17T01:12:40.768Z,99253.81
2023-02-17T01:12:53.596Z,99253.81
2023-02-17T01:13:06.852Z,99249.44
2023-02-17T01:13:19.879Z,99259.91
2023-02-17T01:13:32.756Z,99252.06
2023-02-17T01:13:45.650Z,99252.94
2023-02-17T01:13:58.974Z,99251.19
2023-02-17T01:14:12.720Z,99251.19
2023-02-17T01:14:25.650Z,99247.72
2023-02-17T01:14:38.498Z,99252.91
2023-02-17T01:15:09.661Z,99247.69
2023-02-17T01:15:22.489Z,99259.00
2023-02-17T01:15:39.180Z,99251.16
2023-02-17T01:15:53.040Z,99254.66
2023-02-17T01:16:06.274Z,99249.41
2023-02-17T01:16:21.340Z,99245.94
2023-02-17T01:16:39.275Z,99249.41
2023-02-17T01:16:52.146Z,99260.75
2023-02-17T01:17:04.992Z,99251.19
2023-02-17T01:17:17.875Z,99256.44
2023-02-17T01:17:30.717Z,99256.44
2023-02-17T01:17:43.559Z,99247.69
2023-02-17T01:17:56.379Z,99246.81
2023-02-17T01:18:09.236Z,99249.41
2023-02-17T01:18:23.270Z,99251.16
2023-02-17T01:18:36.083Z,99249.41
2023-02-17T01:18:49.149Z,99246.84
2023-02-17T01:19:06.777Z,99252.06
2023-02-17T01:19:19.703Z,99247.69
2023-02-17T01:19:32.612Z,99248.53
2023-02-17T01:19:45.461Z,99250.25
2023-02-17T01:20:17.027Z,99252.03
2023-02-17T01:20:29.872Z,99241.56
2023-02-17T01:20:43.015Z,99244.19
2023-02-17T01:20:55.864Z,99248.53
2023-02-17T01:21:22.801Z,99248.53
2023-02-17T01:21:35.774Z,99248.53
2023-02-17T01:21:48.959Z,99247.69
2023-02-17T01:22:01.787Z,99249.41
2023-02-17T01:22:14.639Z,99256.38
2023-02-17T01:22:45.723Z,99243.31
2023-02-17T01:22:58.515Z,99242.41
2023-02-17T01:23:11.603Z,99249.41
2023-02-17T01:23:24.461Z,99242.44
2023-02-17T01:23:37.326Z,99245.09
2023-02-17T01:23:53.304Z,99248.59
2023-02-17T01:24:07.170Z,99246.81
2023-02-17T01:24:20.036Z,99249.38
2023-02-17T01:24:32.920Z,99248.50
2023-02-17T01:24:45.745Z,99247.63
2023-02-17T01:24:58.582Z,99251.12
2023-02-17T01:25:11.637Z,99237.19
2023-02-17T01:25:24.729Z,99245.03
2023-02-17T01:25:42.349Z,99242.41
2023-02-17T01:25:55.394Z,99242.44
2023-02-17T01:26:08.258Z,99248.59
2023-02-17T01:26:23.110Z,99244.22
2023-02-17T01:26:36.693Z,99244.22
2023-02-17T01:26:49.526Z,99248.56
2023-02-17T01:27:02.440Z,99247.72
2023-02-17T01:27:15.381Z,99246.84
2023-02-17T01:27:28.184Z,99252.06
2023-02-17T01:27:41.000Z,99245.94
2023-02-17T01:27:54.201Z,99237.22
2023-02-17T01:28:07.341Z,99244.22
2023-02-17T01:28:20.940Z,99243.34
2023-02-17T01:28:36.014Z,99245.97
2023-02-17T01:28:49.319Z,99245.09
2023-02-17T01:29:02.738Z,99239.84
2023-02-17T01:29:15.563Z,99240.69
2023-02-17T01:29:28.404Z,99239.84
2023-02-17T01:29:41.252Z,99238.97
2023-02-17T01:29:54.367Z,99240.66
2023-02-17T01:30:07.691Z,99238.94
2023-02-17T01:30:20.644Z,99244.16
2023-02-17T01:30:33.554Z,99238.94
2023-02-17T01:30:46.727Z,99238.97
2023-02-17T01:30:59.668Z,99236.34
2023-02-17T01:31:13.172Z,99238.13
2023-02-17T01:31:29.258Z,99235.50
2023-02-17T01:31:42.275Z,99236.38
2023-02-17T01:31:55.658Z,99238.13
2023-02-17T01:32:08.526Z,99239.00
2023-02-17T01:32:21.380Z,99237.22
2023-02-17T01:32:34.278Z,99237.25
2023-02-17T01:32:47.160Z,99239.00
2023-02-17T01:33:00.038Z,99240.69
2023-02-17T01:33:12.912Z,99238.13
2023-02-17T01:33:25.772Z,99240.69
2023-02-17T01:33:38.845Z,99238.97
2023-02-17T01:33:51.687Z,99234.59
2023-02-17T01:34:04.659Z,99236.34
2023-02-17T01:34:17.533Z,99236.38
2023-02-17T01:34:30.402Z,99237.25
2023-02-17T01:34:43.312Z,99241.59
2023-02-17T01:34:56.148Z,99238.13
2023-02-17T01:35:09.003Z,99239.87
2023-02-17T01:35:21.905Z,99243.34
2023-02-17T01:35:35.070Z,99234.62
2023-02-17T01:35:47.885Z,99239.87
2023-02-17T01:36:05.030Z,99242.47
2023-02-17T01:36:18.922Z,99239.81
2023-02-17T01:36:31.861Z,99241.56
2023-02-17T01:36:44.728Z,99238.97
2023-02-17T01:36:57.574Z,99238.97
2023-02-17T01:37:10.444Z,99234.59
2023-02-17T01:37:23.306Z,99232.84
2023-02-17T01:37:36.169Z,99234.59
2023-02-17T01:37:49.000Z,99245.09
2023-02-17T01:38:01.889Z,99239.00
2023-02-17T01:38:14.703Z,99231.16
2023-02-17T01:38:27.553Z,99230.28
2023-02-17T01:38:40.451Z,99241.56
2023-02-17T01:38:53.288Z,99235.47
2023-02-17T01:39:06.107Z,99237.22
2023-02-17T01:39:18.972Z,99235.44
2023-02-17T01:39:31.847Z,99229.38
2023-02-17T01:39:44.784Z,99234.59
2023-02-17T01:39:57.613Z,99235.47
2023-02-17T01:40:12.862Z,99234.62
2023-02-17T01:40:25.734Z,99235.47
2023-02-17T01:40:45.311Z,99235.50
2023-02-17T01:40:58.426Z,99231.16
2023-02-17T01:41:11.788Z,99240.72
2023-02-17T01:41:28.579Z,99235.50
2023-02-17T01:41:41.404Z,99231.13
2023-02-17T01:41:54.292Z,99227.62
2023-02-17T01:42:09.897Z,99231.13
2023-02-17T01:42:22.712Z,99232.84
2023-02-17T01:42:35.567Z,99230.25
2023-02-17T01:42:48.499Z,99231.13
2023-02-17T01:43:01.317Z,99233.72
2023-02-17T01:43:16.901Z,99232.81
2023-02-17T01:43:29.921Z,99230.22
2023-02-17T01:43:42.932Z,99235.44
2023-02-17T01:44:12.190Z,99237.19
2023-02-17T01:44:25.897Z,99231.97
2023-02-17T01:45:16.589Z,99235.47
2023-02-17T01:45:33.651Z,99234.62
2023-02-17T01:45:53.351Z,99240.72
2023-02-17T01:46:07.043Z,99237.22
2023-02-17T01:46:20.137Z,99233.69
2023-02-17T01:46:33.987Z,99228.50
2023-02-17T01:46:48.393Z,99231.13
2023-02-17T01:47:01.305Z,99235.47
2023-02-17T01:47:14.138Z,99237.22
2023-02-17T01:47:26.954Z,99235.47
2023-02-17T01:47:39.782Z,99237.22
2023-02-17T01:47:56.715Z,99230.28
2023-02-17T01:48:12.335Z,99234.62
2023-02-17T01:48:27.263Z,99226.78
2023-02-17T01:48:43.076Z,99232.88
2023-02-17T01:48:55.908Z,99228.53
2023-02-17T01:49:31.653Z,99231.16
2023-02-17T01:49:44.474Z,99225.91
2023-02-17T01:49:57.368Z,99225.94
2023-02-17T01:50:10.258Z,99227.69
2023-02-17T01:50:25.087Z,99229.41
2023-02-17T01:50:44.786Z,99232.00
2023-02-17T01:51:06.180Z,99227.66
2023-02-17T01:51:27.265Z,99236.41
2023-02-17T01:51:40.054Z,99236.38
2023-02-17T01:51:56.529Z,99228.50
2023-02-17T01:52:19.016Z,99234.59
2023-02-17T01:52:34.327Z,99231.16
2023-02-17T01:52:47.148Z,99224.16
2023-02-17T01:53:00.278Z,99227.69
2023-02-17T01:53:14.592Z,99226.81
2023-02-17T01:53:41.723Z,99221.59
2023-02-17T01:54:14.390Z,99225.94
2023-02-17T01:54:30.010Z,99225.94
2023-02-17T01:54:58.009Z,99226.81
2023-02-17T01:55:15.726Z,99215.44
2023-02-17T01:55:28.610Z,99220.72
2023-02-17T01:55:41.471Z,99223.31
2023-02-17T01:55:54.346Z,99224.22
2023-02-17T01:56:07.518Z,99226.81
2023-02-17T01:56:20.591Z,99223.34
2023-02-17T01:56:33.622Z,99227.69
2023-02-17T01:56:47.393Z,99225.09
2023-02-17T01:57:00.259Z,99225.94
2023-02-17T01:57:13.708Z,99230.28
2023-02-17T01:57:27.911Z,99224.16
2023-02-17T01:57:40.862Z,99224.16
2023-02-17T01:57:54.366Z,99233.75
2023-02-17T01:58:07.751Z,99224.19
2023-02-17T01:58:20.925Z,99229.41
2023-02-17T01:58:33.836Z,99226.78
2023-02-17T01:58:49.638Z,99237.25
2023-02-17T01:59:16.410Z,99226.75
2023-02-17T01:59:29.330Z,99225.91
2023-02-17T01:59:44.707Z,99231.16
2023-02-17T01:59:57.532Z,99236.41
2023-02-17T02:00:10.976Z,99239.00
2023-02-17T02:00:23.802Z,99230.28
2023-02-17T02:00:36.638Z,99237.28
2023-02-17T02:00:49.459Z,99228.56
2023-02-17T02:01:03.655Z,99237.28
2023-02-17T02:01:16.507Z,99228.56
2023-02-17T02:01:29.837Z,99229.41
2023-02-17T02:01:42.753Z,99237.28
2023-02-17T02:01:57.797Z,99240.75
2023-02-17T02:02:10.745Z,99230.31
2023-02-17T02:02:23.762Z,99239.87
2023-02-17T02:02:36.800Z,99232.03
2023-02-17T02:02:49.776Z,99233.78
2023-02-17T02:03:03.019Z,99234.66
2023-02-17T02:03:15.911Z,99230.31
2023-02-17T02:03:29.472Z,99223.28
2023-02-17T02:03:42.650Z,99232.00
2023-02-17T02:03:55.500Z,99230.28
2023-02-17T02:04:08.442Z,99228.53
2023-02-17T02:04:22.639Z,99234.62
2023-02-17T02:04:37.987Z,99229.41
2023-02-17T02:04:52.708Z,99226.75
2023-02-17T02:05:05.875Z,99225.03
2023-02-17T02:05:18.722Z,99234.59
2023-02-17T02:05:31.560Z,99225.00
2023-02-17T02:05:44.467Z,99229.38
2023-02-17T02:05:57.471Z,99225.03
2023-02-17T02:06:14.803Z,99230.25
2023-02-17T02:06:27.883Z,99231.16
2023-02-17T02:06:40.938Z,99219.81
2023-02-17T02:06:53.766Z,99225.91
2023-02-17T02:07:10.105Z,99227.66
2023-02-17T02:07:26.463Z,99226.78
2023-02-17T02:07:40.567Z,99225.91
2023-02-17T02:07:53.705Z,99220.69
2023-02-17T02:08:06.667Z,99223.31
2023-02-17T02:08:19.517Z,99221.56
2023-02-17T02:08:35.242Z,99221.59
2023-02-17T02:09:10.508Z,99223.28
2023-02-17T02:09:28.415Z,99224.19
2023-02-17T02:09:46.030Z,99214.59
2023-02-17T02:09:59.133Z,99225.03
2023-02-17T02:10:12.532Z,99220.69
2023-02-17T02:10:25.367Z,99225.03
2023-02-17T02:10:38.365Z,99221.56
2023-02-17T02:10:51.198Z,99224.19
2023-02-17T02:11:04.060Z,99221.56
2023-02-17T02:11:17.018Z,99225.03
2023-02-17T02:11:30.127Z,99229.41
2023-02-17T02:11:42.945Z,99221.56
2023-02-17T02:11:55.782Z,99221.56
2023-02-17T02:12:25.737Z,99225.03
2023-02-17T02:12:39.714Z,99224.16
2023-02-17T02:12:52.801Z,99229.44
2023-02-17T02:13:06.015Z,99228.56
2023-02-17T02:13:18.854Z,99223.31
2023-02-17T02:13:31.701Z,99229.44
2023-02-17T02:13:44.602Z,99232.03
2023-02-17T02:13:57.475Z,99225.09
2023-02-17T02:14:10.391Z,99232.91
2023-02-17T02:14:23.246Z,99230.31
2023-02-17T02:14:36.072Z,99233.78
2023-02-17T02:14:48.921Z,99232.91
2023-02-17T02:15:12.750Z,99229.41
2023-02-17T02:15:27.027Z,99225.00
2023-02-17T02:16:21.615Z,99226.75
2023-02-17T02:16:43.188Z,99227.62
2023-02-17T02:17:07.478Z,99221.56
2023-02-17T02:17:22.932Z,99226.78
2023-02-17T02:18:49.876Z,99224.19
2023-02-17T02:20:19.987Z,99225.91
2023-02-17T02:21:29.971Z,99220.69
2023-02-17T02:22:17.365Z,99217.19
2023-02-17T02:22:52.626Z,99216.34
2023-02-17T02:23:50.326Z,99222.44
2023-02-17T02:25:30.444Z,99214.56
2023-02-17T02:27:04.065Z,99228.53
2023-02-17T02:27:55.409Z,99223.28
2023-02-17T02:29:08.311Z,99221.53
2023-02-17T02:30:05.995Z,99216.28
2023-02-17T02:30:57.686Z,99212.81
2023-02-17T02:31:37.530Z,99213.69
2023-02-17T02:32:32.080Z,99207.63
2023-02-17T02:33:29.254Z,99206.72
2023-02-17T02:34:26.186Z,99204.97
2023-02-17T02:35:20.735Z,99207.63
2023-02-17T02:36:33.618Z,99205.00
2023-02-17T02:37:48.767Z,99203.22
2023-02-17T02:38:26.331Z,99205.84
2023-02-17T02:39:14.452Z,99206.75
2023-02-17T02:40:07.192Z,99206.75
2023-02-17T02:40:43.471Z,99204.12
2023-02-17T02:41:21.776Z,99204.09
2023-02-17T02:41:59.679Z,99204.09
2023-02-17T02:42:32.377Z,99206.75
2023-02-17T02:43:05.164Z,99192.78
2023-02-17T02:43:37.928Z,99205.00
2023-02-17T02:44:29.112Z,99210.19
2023-02-17T02:45:01.944Z,99204.09
2023-02-17T02:45:35.642Z,99204.12
2023-02-17T02:46:08.768Z,99207.63
2023-02-17T02:47:07.514Z,99205.88
2023-02-17T02:47:59.215Z,99209.34
2023-02-17T02:48:32.134Z,99205.84
2023-02-17T02:49:23.585Z,99209.31
2023-02-17T02:49:56.344Z,99203.19
2023-02-17T02:50:50.274Z,99207.59
2023-02-17T02:51:35.008Z,99209.34
2023-02-17T02:52:20.049Z,99201.50
2023-02-17T02:57:40.543Z,99200.66
2023-02-17T02:58:17.905Z,99200.63
2023-02-17T02:58:56.457Z,99208.47
2023-02-17T02:59:46.403Z,99201.50
2023-02-17T03:01:16.303Z,99203.25
2023-02-17T03:43:09.706Z,99230.31
2023-02-17T03:44:24.171Z,99223.34
2023-02-17T03:44:56.921Z,99232.91
2023-02-17T03:45:29.851Z,99224.19
2023-02-17T03:46:02.671Z,99229.41
2023-02-17T03:46:53.568Z,99230.28
2023-02-17T03:47:27.181Z,99235.56
2023-02-17T03:47:59.930Z,99235.53
2023-02-17T03:48:51.526Z,99232.06
2023-02-17T03:49:24.197Z,99227.69
2023-02-17T03:49:56.941Z,99227.69
2023-02-17T03:50:29.631Z,99225.97
2023-02-17T03:51:30.481Z,99225.06
2023-02-17T03:52:21.363Z,99216.34
2023-02-17T03:52:54.130Z,99223.34
2023-02-17T03:53:26.810Z,99220.72
2023-02-17T03:53:59.526Z,99218.97
2023-02-17T03:54:52.653Z,99219.84
2023-02-17T03:55:25.328Z,99215.50
2023-02-17T03:55:58.065Z,99212.84
2023-02-17T03:56:30.866Z,99218.13
2023-02-17T03:57:04.099Z,99214.59
2023-02-17T03:57:17.534Z,99213.72
2023-02-17T03:57:51.237Z,99213.72
2023-02-17T03:58:24.983Z,99211.97
2023-02-17T03:58:58.645Z,99214.59
2023-02-17T03:59:33.396Z,99218.09
2023-02-17T04:00:24.671Z,99206.75
2023-02-17T04:01:15.921Z,99207.63
2023-02-17T04:01:48.832Z,99204.19
2023-02-17T04:02:23.112Z,99213.78
2023-02-17T04:02:57.123Z,99205.91
2023-02-17T04:03:49.209Z,99207.66
2023-02-17T04:04:21.995Z,99211.13
2023-02-17T04:04:54.705Z,99208.53
2023-02-17T04:05:27.446Z,99212.00
2023-02-17T04:06:19.084Z,99210.25
2023-02-17T04:06:51.785Z,99212.84
2023-02-17T04:07:24.517Z,99207.66
2023-02-17T04:07:57.227Z,99209.37
2023-02-17T04:08:30.032Z,99212.00
2023-02-17T04:09:02.967Z,99206.75
2023-02-17T04:09:35.711Z,99212.88
2023-02-17T04:10:09.619Z,99214.59
2023-02-17T04:10:41.315Z,99214.63
2023-02-17T04:11:14.003Z,99212.88
2023-02-17T04:11:26.880Z,99212.00
2023-02-17T04:12:00.775Z,99215.47
2023-02-17T04:12:33.513Z,99213.75
2023-02-17T04:13:06.279Z,99213.75
2023-02-17T04:13:40.039Z,99218.13
2023-02-17T04:14:12.751Z,99213.75
2023-02-17T04:14:44.617Z,99210.25
2023-02-17T04:15:17.881Z,99215.50
2023-02-17T04:15:50.874Z,99212.88
2023-02-17T04:16:23.585Z,99207.63
2023-02-17T04:16:56.305Z,99210.25
2023-02-17T04:17:29.055Z,99205.91
2023-02-17T04:18:02.822Z,99204.16
2023-02-17T04:18:35.684Z,99205.91
2023-02-17T04:18:48.612Z,99208.53
2023-02-17T04:19:21.428Z,99205.91
2023-02-17T04:20:14.150Z,99200.66
2023-02-17T04:20:48.265Z,99205.91
2023-02-17T04:21:20.783Z,99196.31
2023-02-17T04:22:11.929Z,99202.41
2023-02-17T04:22:24.803Z,99193.69
2023-02-17T04:23:16.477Z,99197.19
2023-02-17T04:23:49.228Z,99200.69
2023-02-17T04:24:40.078Z,99202.41
2023-02-17T04:25:14.573Z,99198.91
2023-02-17T04:25:47.418Z,99205.91
2023-02-17T04:26:20.113Z,99198.94
2023-02-17T04:26:53.048Z,99203.28
2023-02-17T04:27:25.685Z,99197.16
2023-02-17T04:27:58.257Z,99192.81
2023-02-17T04:28:30.823Z,99199.78
2023-02-17T04:29:04.683Z,99197.16
2023-02-17T04:29:37.226Z,99199.78
2023-02-17T04:30:12.369Z,99194.56
2023-02-17T04:31:02.326Z,99205.03
2023-02-17T04:31:53.756Z,99199.78